Time;durP1;ratioP1;P1;durP2;ratioP2;P2;SDS_P1;SDS_P2;PMS_P1;PMS_P2;Temp;Humidity;BMP_temperature;BMP_pressure;BME280_temperature;BME280_humidity;BME280_pressure;Samples;Min_cycle;Max_cycle;Signal;HPM_P1;HPM_P2
2023/04/12 00:00:26;;;;;;;7.53;1.93;;;8.80;99.90;;;9.54;100.00;97490.06;4971738;28;20477;-74
2023/04/12 00:02:58;;;;;;;3.93;1.50;;;8.80;99.90;;;9.53;100.00;97489.25;4976276;28;20468;-75
2023/04/12 00:05:29;;;;;;;4.40;1.70;;;8.80;99.90;;;9.50;100.00;97488.81;4973883;28;20499;-75
2023/04/12 00:08:01;;;;;;;5.90;1.77;;;8.80;99.90;;;9.53;100.00;97473.59;4975424;28;20494;-75
2023/04/12 00:10:30;;;;;;;6.50;1.70;;;8.80;99.90;;;9.54;100.00;97474.41;4974804;28;20472;-75
2023/04/12 00:13:01;;;;;;;6.00;1.93;;;8.80;99.90;;;9.56;100.00;97462.75;4973428;28;20800;-75
2023/04/12 00:15:30;;;;;;;4.13;1.50;;;8.80;99.90;;;9.54;100.00;97456.13;4974608;28;20469;-74
2023/04/12 00:18:01;;;;;;;6.87;1.93;;;8.80;99.90;;;9.55;100.00;97450.69;4972716;28;20500;-74
2023/04/12 00:20:30;;;;;;;5.33;2.13;;;8.80;99.90;;;9.55;100.00;97450.69;4980661;28;20465;-75
2023/04/12 00:23:01;;;;;;;8.20;1.77;;;8.80;99.90;;;9.54;100.00;97440.47;4976208;28;20466;-75
2023/04/12 00:25:31;;;;;;;4.87;1.73;;;8.80;99.90;;;9.54;100.00;97425.59;4976246;28;20555;-74
2023/04/12 00:28:02;;;;;;;2.67;1.40;;;8.80;99.90;;;9.55;100.00;97423.78;4976452;28;20506;-75
2023/04/12 00:30:32;;;;;;;10.37;1.50;;;8.80;99.90;;;9.55;100.00;97421.97;4974286;28;20471;-75
2023/04/12 00:33:02;;;;;;;8.00;1.80;;;8.80;99.90;;;9.56;100.00;97420.19;4975827;28;20558;-75
2023/04/12 00:35:32;;;;;;;2.33;1.57;;;8.80;99.90;;;9.56;100.00;97407.94;4977308;28;20475;-75
2023/04/12 00:38:02;;;;;;;2.70;1.73;;;8.70;99.90;;;9.53;100.00;97405.72;4977066;28;20498;-75
2023/04/12 00:40:33;;;;;;;3.90;1.70;;;8.80;99.90;;;9.53;100.00;97405.72;4981455;28;20460;-75
2023/04/12 00:43:03;;;;;;;6.53;1.70;;;8.90;99.90;;;9.51;100.00;97397.28;4978191;28;20488;-75
2023/04/12 00:45:33;;;;;;;3.53;1.73;;;8.80;99.90;;;9.51;100.00;97386.06;4977239;28;20465;-74
2023/04/12 00:48:05;;;;;;;4.50;1.77;;;8.80;99.90;;;9.51;100.00;97379.00;4980437;28;20460;-74
2023/04/12 00:50:35;;;;;;;6.67;1.43;;;8.80;99.90;;;9.50;100.00;97379.22;4977659;28;21003;-74
2023/04/12 00:53:05;;;;;;;1.97;1.40;;;8.80;99.90;;;9.48;100.00;97374.19;4980481;28;20464;-75
2023/04/12 00:55:35;;;;;;;5.77;2.00;;;8.80;99.90;;;9.45;100.00;97366.75;4976121;28;20547;-74
2023/04/12 00:58:06;;;;;;;4.83;1.60;;;8.80;99.90;;;9.44;100.00;97365.13;4977278;28;21147;-75
2023/04/12 01:00:36;;;;;;;4.00;1.63;;;8.80;99.90;;;9.48;100.00;97350.69;4980320;28;20891;-75
2023/04/12 01:03:07;;;;;;;5.13;1.63;;;8.80;99.90;;;9.47;100.00;97343.09;4979790;28;21189;-75
2023/04/12 01:05:50;;;;;;;3.40;1.30;;;8.70;99.90;;;9.45;100.00;97340.66;4978290;28;20545;-75
2023/04/12 01:08:38;;;;;;;5.37;1.97;;;8.70;99.90;;;9.45;100.00;97335.44;4977078;28;20465;-74
2023/04/12 01:11:18;;;;;;;3.70;1.30;;;8.70;99.90;;;9.44;100.00;97338.25;4977057;28;20830;-74
2023/04/12 01:13:58;;;;;;;8.67;1.80;;;8.70;99.90;;;9.45;100.00;97324.19;4976854;28;20837;-75
2023/04/12 01:16:39;;;;;;;6.20;1.27;;;8.70;99.90;;;9.45;100.00;97322.38;4977725;28;20573;-75
2023/04/12 01:20:15;;;;;;;11.80;2.03;;;8.70;99.90;;;9.45;100.00;97304.13;4981094;28;20487;-74
2023/04/12 01:23:14;;;;;;;5.13;1.67;;;8.70;99.90;;;9.41;100.00;97302.91;4980439;28;20832;-74
2023/04/12 01:26:09;;;;;;;2.00;1.40;;;8.70;99.90;;;9.39;100.00;97294.47;4977542;28;20469;-74
2023/04/12 01:28:44;;;;;;;3.90;1.73;;;8.70;99.90;;;9.41;100.00;97300.28;4977999;28;20539;-75
2023/04/12 01:31:14;;;;;;;4.87;1.60;;;8.70;99.90;;;9.40;100.00;97292.69;4977665;28;20494;-74
2023/04/12 01:33:49;;;;;;;3.47;1.90;;;8.70;99.90;;;9.38;100.00;97284.22;4975951;28;20467;-75
2023/04/12 01:36:22;;;;;;;1.87;1.40;;;8.70;99.90;;;9.40;100.00;97277.84;4978771;28;20456;-75
2023/04/12 01:38:54;;;;;;;5.57;2.00;;;8.70;99.90;;;9.41;100.00;97271.59;4977642;28;20480;-74
2023/04/12 01:41:25;;;;;;;8.17;1.80;;;8.70;99.90;;;9.40;100.00;97271.81;4977246;28;21299;-75
2023/04/12 01:43:56;;;;;;;7.23;1.67;;;8.80;99.90;;;9.38;100.00;97274.59;4974910;28;20544;-75
2023/04/12 01:46:27;;;;;;;5.10;1.50;;;8.80;99.90;;;9.38;100.00;97266.78;4975510;28;20962;-74
2023/04/12 01:48:58;;;;;;;3.23;1.73;;;8.80;99.90;;;9.34;100.00;97257.72;4978199;28;20475;-75
2023/04/12 01:51:42;;;;;;;3.37;1.70;;;8.70;99.90;;;9.35;100.00;97261.97;4978971;28;20472;-75
2023/04/12 01:54:17;;;;;;;4.43;2.00;;;8.70;99.90;;;9.37;100.00;97251.34;4978046;28;20456;-75
2023/04/12 01:56:56;;;;;;;5.60;1.60;;;8.70;99.90;;;9.38;100.00;97260.75;4977807;28;20479;-74
2023/04/12 01:59:34;;;;;;;3.20;2.07;;;8.70;99.90;;;9.38;100.00;97251.13;4977470;28;20473;-74
2023/04/12 02:02:05;;;;;;;7.37;1.77;;;8.70;99.90;;;9.39;100.00;97242.31;4976539;28;21069;-75
2023/04/12 02:04:36;;;;;;;3.23;1.60;;;8.70;99.90;;;9.39;100.00;97237.09;4976804;28;20559;-75
2023/04/12 02:07:06;;;;;;;6.37;1.80;;;8.70;99.90;;;9.38;100.00;97227.63;4980496;28;20978;-75
2023/04/12 02:09:38;;;;;;;2.13;1.20;;;8.70;99.90;;;9.38;100.00;97222.41;4978405;28;20529;-75
2023/04/12 02:12:08;;;;;;;2.10;1.40;;;8.60;99.90;;;9.39;100.00;97216.22;4977012;28;20472;-75
2023/04/12 02:14:38;;;;;;;7.00;1.93;;;8.60;99.90;;;9.40;100.00;97212.59;4977244;28;20459;-75
2023/04/12 02:17:09;;;;;;;6.00;2.13;;;8.70;99.90;;;9.37;100.00;97205.16;4977431;28;21343;-75
2023/04/12 02:19:38;;;;;;;4.03;2.27;;;8.70;99.90;;;9.36;100.00;97198.34;4980510;28;20504;-75
2023/04/12 02:22:08;;;;;;;1.73;1.30;;;8.70;99.90;;;9.36;100.00;97195.75;4974863;28;20958;-75
2023/04/12 02:24:37;;;;;;;8.07;1.53;;;8.70;99.90;;;9.37;100.00;97192.09;4976414;28;20586;-75
2023/04/12 02:27:06;;;;;;;3.00;1.33;;;8.60;99.90;;;9.36;100.00;97194.94;4977276;28;20550;-74
2023/04/12 02:29:38;;;;;;;4.93;1.97;;;8.70;99.90;;;9.33;100.00;97183.09;4978211;28;20460;-75
2023/04/12 02:32:08;;;;;;;5.73;1.40;;;8.60;99.90;;;9.29;100.00;97168.84;4974546;28;20517;-75
2023/04/12 02:34:38;;;;;;;2.70;1.37;;;8.70;99.90;;;9.30;100.00;97164.44;4977111;28;20471;-75
2023/04/12 02:37:08;;;;;;;2.37;1.17;;;8.60;99.90;;;9.31;100.00;97166.81;4973604;28;20498;-74
2023/04/12 02:39:40;;;;;;;2.00;1.40;;;8.60;99.90;;;9.32;100.00;97163.22;4974463;28;20501;-74
2023/04/12 02:42:10;;;;;;;5.80;1.90;;;8.60;99.90;;;9.34;100.00;97160.41;4977637;28;21263;-74
2023/04/12 02:44:46;;;;;;;6.20;1.90;;;8.60;99.90;;;9.33;100.00;97151.78;4976738;28;20472;-75
2023/04/12 02:47:15;;;;;;;3.03;1.47;;;8.60;99.90;;;9.30;100.00;97144.34;4978009;28;20509;-74
2023/04/12 02:49:44;;;;;;;7.23;1.50;;;8.70;99.90;;;9.29;100.00;97136.72;4980054;28;20500;-75
2023/04/12 02:52:14;;;;;;;2.50;1.40;;;8.60;99.90;;;9.29;100.00;97131.50;4976736;28;20465;-74
2023/04/12 02:54:45;;;;;;;3.37;2.00;;;8.60;99.90;;;9.29;100.00;97114.06;4977721;28;20514;-75
2023/04/12 02:57:14;;;;;;;3.40;1.43;;;8.60;99.90;;;9.29;100.00;97116.66;4979708;28;20485;-74
2023/04/12 02:59:46;;;;;;;3.63;1.80;;;8.60;99.90;;;9.30;100.00;97097.38;4974578;28;21124;-75
2023/04/12 03:02:16;;;;;;;3.23;1.93;;;8.60;99.90;;;9.30;100.00;97086.19;4979289;28;20460;-75
2023/04/12 03:04:45;;;;;;;4.93;2.03;;;8.60;99.90;;;9.28;100.00;97088.16;4975836;28;20958;-75
2023/04/12 03:07:16;;;;;;;3.30;1.40;;;8.60;99.90;;;9.29;100.00;97082.75;4975493;28;20888;-75
2023/04/12 03:09:45;;;;;;;2.03;1.10;;;8.60;99.90;;;9.31;100.00;97080.75;4974234;28;20465;-74
2023/04/12 03:12:16;;;;;;;5.20;1.30;;;8.60;99.90;;;9.31;100.00;97069.50;4977622;28;21545;-75
2023/04/12 03:14:47;;;;;;;1.57;1.23;;;8.60;99.90;;;9.32;100.00;97066.69;4975462;28;20525;-75
2023/04/12 03:17:17;;;;;;;1.77;1.30;;;8.60;99.90;;;9.30;100.00;97050.44;4977084;28;20477;-75
2023/04/12 03:19:47;;;;;;;1.97;1.20;;;8.60;99.90;;;9.27;100.00;97056.06;4975246;28;20689;-74
2023/04/12 03:22:16;;;;;;;1.53;1.20;;;8.60;99.90;;;9.22;100.00;97042.84;4977002;28;20465;-75
2023/04/12 03:24:46;;;;;;;2.30;1.60;;;8.50;99.90;;;9.23;100.00;97036.63;4976973;28;20486;-74
2023/04/12 03:27:16;;;;;;;1.63;1.40;;;8.50;99.90;;;9.25;100.00;97020.75;4973128;28;22374;-75
2023/04/12 03:29:47;;;;;;;1.53;1.27;;;8.50;99.90;;;9.23;100.00;97015.75;4976658;28;20513;-74
2023/04/12 03:32:19;;;;;;;2.53;1.30;;;8.50;99.90;;;9.19;100.00;97011.94;4977116;28;20483;-74
2023/04/12 03:34:49;;;;;;;2.27;1.50;;;8.50;99.90;;;9.14;100.00;96997.91;4976866;28;20460;-75
2023/04/12 03:37:20;;;;;;;4.70;1.10;;;8.50;99.90;;;9.14;100.00;97001.31;4976189;28;20544;-74
2023/04/12 03:39:51;;;;;;;3.90;1.20;;;8.50;99.90;;;9.11;100.00;96991.28;4973670;28;20518;-75
2023/04/12 03:42:21;;;;;;;1.63;1.20;;;8.50;99.90;;;9.13;100.00;96985.88;4975004;28;20489;-75
2023/04/12 03:45:03;;;;;;;1.33;1.20;;;8.50;99.90;;;9.14;100.00;96983.06;4973527;28;20959;-74
2023/04/12 03:47:33;;;;;;;1.73;1.63;;;8.50;99.90;;;9.13;100.00;96981.44;4973291;28;20469;-74
2023/04/12 03:50:06;;;;;;;4.30;1.77;;;8.50;99.90;;;9.14;100.00;96979.66;4975465;28;20472;-75
2023/04/12 03:52:40;;;;;;;2.60;1.27;;;8.50;99.90;;;9.15;100.00;96974.25;4979348;28;20468;-75
2023/04/12 03:55:10;;;;;;;1.70;1.17;;;8.50;99.90;;;9.16;100.00;96962.81;4975755;28;20476;-74
2023/04/12 03:57:41;;;;;;;2.70;1.30;;;8.50;99.90;;;9.16;100.00;96965.41;4977332;28;20499;-74
2023/04/12 04:00:15;;;;;;;6.43;1.20;;;8.40;99.90;;;9.15;100.00;96957.78;4978637;28;20587;-75
2023/04/12 04:02:46;;;;;;;4.83;1.20;;;8.40;99.90;;;9.16;100.00;96956.78;4973882;28;20473;-75
2023/04/12 04:05:17;;;;;;;1.97;1.27;;;8.40;99.90;;;9.15;100.00;96947.34;4976007;28;20467;-74
2023/04/12 04:07:47;;;;;;;2.20;1.40;;;8.50;99.90;;;9.16;100.00;96947.16;4975121;28;20525;-74
2023/04/12 04:10:17;;;;;;;1.83;1.50;;;8.50;99.90;;;9.16;100.00;96943.75;4974929;28;20461;-75
2023/04/12 04:12:47;;;;;;;1.63;1.40;;;8.50;99.90;;;9.12;100.00;96937.34;4974715;28;20461;-75
2023/04/12 04:15:20;;;;;;;2.03;1.10;;;8.50;99.90;;;9.14;100.00;96937.91;4978392;28;20470;-75
2023/04/12 04:17:50;;;;;;;2.50;1.77;;;8.50;99.90;;;9.13;100.00;96939.72;4973045;28;20534;-74
2023/04/12 04:20:20;;;;;;;1.33;1.00;;;8.50;99.90;;;9.13;100.00;96942.31;4977390;28;20493;-75
2023/04/12 04:22:52;;;;;;;1.43;1.33;;;8.50;99.90;;;9.15;100.00;96929.91;4974998;28;20492;-75
2023/04/12 04:25:23;;;;;;;2.37;1.70;;;8.50;99.90;;;9.14;100.00;96925.69;4974883;28;20507;-75
2023/04/12 04:27:53;;;;;;;2.87;1.40;;;8.50;99.90;;;9.13;100.00;96918.84;4976583;28;20501;-74
2023/04/12 04:30:25;;;;;;;2.67;1.47;;;8.40;99.90;;;9.13;100.00;96918.09;4977439;28;20479;-75
2023/04/12 04:32:55;;;;;;;2.10;1.30;;;8.40;99.90;;;9.11;100.00;96915.66;4977902;28;20471;-75
2023/04/12 04:35:26;;;;;;;1.73;1.33;;;8.50;99.90;;;9.14;100.00;96902.22;4975859;28;20594;-75
2023/04/12 04:37:55;;;;;;;1.60;1.20;;;8.50;99.90;;;9.13;100.00;96900.59;4973999;28;20519;-75
2023/04/12 04:40:27;;;;;;;2.90;1.27;;;8.50;99.90;;;9.15;100.00;96893.38;4973543;28;20579;-75
2023/04/12 04:42:56;;;;;;;1.27;1.17;;;8.50;99.90;;;9.16;100.00;96881.97;4977211;28;20499;-75
2023/04/12 04:45:29;;;;;;;1.97;1.30;;;8.50;99.90;;;9.18;100.00;96884.34;4973740;28;20552;-74
2023/04/12 04:48:00;;;;;;;1.83;1.30;;;8.50;99.90;;;9.19;100.00;96878.94;4975115;28;20486;-74
2023/04/12 04:50:30;;;;;;;1.97;1.40;;;8.50;99.90;;;9.20;100.00;96866.69;4974607;28;21065;-75
2023/04/12 04:53:00;;;;;;;1.00;1.00;;;8.50;99.90;;;9.22;100.00;96869.88;4973037;28;20456;-75
2023/04/12 04:55:30;;;;;;;2.33;1.17;;;8.50;99.90;;;9.20;100.00;96862.25;4974869;28;20476;-75
2023/04/12 04:58:01;;;;;;;2.03;1.53;;;8.50;99.90;;;9.20;100.00;96857.03;4974477;28;20489;-75
2023/04/12 05:00:34;;;;;;;4.57;1.37;;;8.60;99.90;;;9.20;100.00;96840.63;4976187;28;21273;-75
2023/04/12 05:03:04;;;;;;;3.30;1.30;;;8.60;99.90;;;9.18;100.00;96840.81;4977666;28;20470;-75
2023/04/12 05:05:34;;;;;;;2.30;1.30;;;8.60;99.90;;;9.17;100.00;96836.59;4973228;28;20467;-75
2023/04/12 05:08:03;;;;;;;2.20;1.57;;;8.50;99.90;;;9.18;100.00;96838.22;4977086;28;20466;-74
2023/04/12 05:10:32;;;;;;;1.73;1.30;;;8.60;99.90;;;9.19;100.00;96834.59;4973900;28;20985;-75
2023/04/12 05:13:01;;;;;;;1.90;1.37;;;8.60;99.90;;;9.19;100.00;96829.38;4971513;28;21148;-75
2023/04/12 05:15:34;;;;;;;57.47;25.53;;;8.50;99.90;;;9.19;100.00;96818.94;4978534;28;20471;-75
2023/04/12 05:18:03;;;;;;;2.70;2.13;;;8.50;99.90;;;9.20;100.00;96811.94;4973807;28;20469;-75
2023/04/12 05:20:34;;;;;;;1.30;1.20;;;8.50;99.90;;;9.22;100.00;96813.31;4978147;28;20462;-75
2023/04/12 05:23:05;;;;;;;3.83;1.50;;;8.60;99.90;;;9.21;100.00;96809.09;4979124;28;20818;-75
2023/04/12 05:25:34;;;;;;;2.70;1.50;;;8.50;99.90;;;9.23;100.00;96801.06;4976740;28;20460;-75
2023/04/12 05:28:12;;;;;;;1.57;1.10;;;8.60;99.90;;;9.24;100.00;96806.06;4975021;28;20574;-74
2023/04/12 05:30:44;;;;;;;1.33;1.23;;;8.60;99.90;;;9.23;100.00;96801.06;4972397;28;20471;-75
2023/04/12 05:33:14;;;;;;;1.77;1.20;;;8.60;99.90;;;9.21;100.00;96785.63;4980795;28;20462;-75
2023/04/12 05:35:44;;;;;;;6.30;1.30;;;8.60;99.90;;;9.23;100.00;96791.44;4978152;28;20476;-75
2023/04/12 05:38:14;;;;;;;2.30;1.23;;;8.60;99.90;;;9.25;100.00;96786.81;4980314;28;20467;-75
2023/04/12 05:40:44;;;;;;;1.43;1.30;;;8.60;99.90;;;9.25;100.00;96781.59;4976913;28;20467;-75
2023/04/12 05:43:14;;;;;;;2.03;1.07;;;8.60;99.90;;;9.28;100.00;96781.16;4977010;28;20468;-75
2023/04/12 05:45:45;;;;;;;1.10;1.00;;;8.70;99.90;;;9.27;100.00;96771.75;4975183;28;20456;-75
2023/04/12 05:48:15;;;;;;;3.40;1.30;;;8.60;99.90;;;9.27;100.00;96771.75;4978995;28;20466;-75
2023/04/12 05:50:51;;;;;;;2.13;1.50;;;8.70;99.90;;;9.29;100.00;96772.34;4979110;28;21286;-75
2023/04/12 05:53:21;;;;;;;4.63;1.40;;;8.60;99.90;;;9.31;100.00;96764.28;4977958;28;20471;-75
2023/04/12 05:55:53;;;;;;;2.77;1.20;;;8.70;99.90;;;9.32;100.00;96758.88;4981821;28;20465;-74
2023/04/12 05:58:23;;;;;;;1.20;1.10;;;8.70;99.90;;;9.33;100.00;96757.88;4976007;28;20490;-75
2023/04/12 06:00:55;;;;;;;2.00;1.30;;;8.70;99.90;;;9.34;100.00;96746.41;4977305;28;20466;-75
2023/04/12 06:03:28;;;;;;;2.10;1.30;;;8.70;99.90;;;9.36;100.00;96739.19;4974884;28;20998;-75
2023/04/12 06:05:58;;;;;;;2.47;1.20;;;8.80;99.90;;;9.36;100.00;96736.59;4975962;28;20457;-75
2023/04/12 06:08:29;;;;;;;1.20;1.10;;;8.80;99.90;;;9.37;100.00;96738.16;4975782;28;21264;-75
2023/04/12 06:11:00;;;;;;;4.50;1.10;;;8.80;99.90;;;9.40;100.00;96739.56;4978953;28;20467;-75
2023/04/12 06:13:30;;;;;;;1.73;1.33;;;8.80;99.90;;;9.39;100.00;96730.13;4976202;28;20876;-75
2023/04/12 06:16:01;;;;;;;2.70;1.20;;;8.80;99.90;;;9.39;100.00;96728.34;4978163;28;20504;-75
2023/04/12 06:18:32;;;;;;;1.67;1.30;;;8.80;99.90;;;9.40;100.00;96722.09;4974784;28;20601;-75
2023/04/12 06:21:01;;;;;;;1.70;1.13;;;8.80;99.90;;;9.43;100.00;96721.69;4982998;28;21059;-75
2023/04/12 06:23:32;;;;;;;1.20;1.10;;;8.80;99.90;;;9.42;100.00;96709.63;4974645;28;20475;-75
2023/04/12 06:26:01;;;;;;;1.70;1.30;;;8.80;99.90;;;9.46;100.00;96720.44;4977940;28;20472;-75
2023/04/12 06:28:30;;;;;;;2.00;1.40;;;8.80;99.90;;;9.49;100.00;96714.81;4976566;28;20473;-72
2023/04/12 06:31:01;;;;;;;10.47;4.70;;;8.80;99.90;;;9.51;100.00;96710.97;4972073;28;20467;-74
2023/04/12 06:33:31;;;;;;;1.27;1.17;;;8.90;99.90;;;9.55;100.00;96701.69;4977307;28;20475;-75
2023/04/12 06:36:01;;;;;;;1.40;1.30;;;8.90;99.90;;;9.56;100.00;96698.09;4976086;28;20904;-74
2023/04/12 06:38:32;;;;;;;2.20;1.30;;;8.90;99.90;;;9.57;100.00;96681.44;4978714;28;20472;-75
2023/04/12 06:41:00;;;;;;;4.17;1.33;;;9.00;99.90;;;9.58;100.00;96677.78;4973760;28;20474;-75
2023/04/12 06:43:30;;;;;;;2.80;1.50;;;9.00;99.90;;;9.59;100.00;96684.59;4976453;28;20461;-75
2023/04/12 06:46:02;;;;;;;1.63;1.43;;;9.00;99.90;;;9.64;100.00;96683.16;4977586;28;21059;-75
2023/04/12 06:48:34;;;;;;;3.50;1.33;;;9.00;99.90;;;9.65;100.00;96672.50;4974099;28;20469;-75
2023/04/12 06:51:05;;;;;;;3.00;1.43;;;9.10;99.90;;;9.66;100.00;96674.09;4978605;28;20555;-74
2023/04/12 06:53:34;;;;;;;2.83;1.27;;;9.10;99.90;;;9.68;100.00;96668.69;4975606;28;20529;-75
2023/04/12 06:56:05;;;;;;;16.63;7.10;;;9.10;99.90;;;9.71;100.00;96665.63;4977001;28;21119;-72
2023/04/12 06:58:35;;;;;;;3.73;2.13;;;9.10;99.90;;;9.70;100.00;96653.59;4973013;28;20520;-76
2023/04/12 07:01:25;;;;;;;2.77;1.20;;;9.10;99.90;;;9.72;100.00;96656.81;4973667;28;20596;-75
2023/04/12 07:03:55;;;;;;;2.13;1.40;;;9.20;99.90;;;9.74;100.00;96657.38;4975587;28;20570;-74
2023/04/12 07:06:25;;;;;;;2.00;1.53;;;9.20;99.90;;;9.73;100.00;96651.34;4975929;28;21111;-75
2023/04/12 07:08:55;;;;;;;2.90;1.50;;;9.10;99.90;;;9.75;100.00;96656.38;4975361;28;20549;-76
2023/04/12 07:11:26;;;;;;;2.40;1.20;;;9.10;99.90;;;9.76;100.00;96653.53;4973880;28;20562;-75
2023/04/12 07:13:57;;;;;;;2.50;1.20;;;9.10;99.90;;;9.77;100.00;96649.91;4977505;28;20490;-75
2023/04/12 07:16:29;;;;;;;1.30;1.13;;;9.10;99.90;;;9.79;100.00;96649.72;4974674;28;20529;-76
2023/04/12 07:18:59;;;;;;;1.40;1.30;;;9.20;99.90;;;9.81;100.00;96643.25;4976275;28;20590;-76
2023/04/12 07:21:29;;;;;;;1.47;1.37;;;9.20;99.90;;;9.82;100.00;96636.22;4974284;28;20468;-75
2023/04/12 07:23:59;;;;;;;1.30;1.20;;;9.20;99.90;;;9.81;100.00;96635.41;4974945;28;21547;-75
2023/04/12 07:26:30;;;;;;;1.57;1.20;;;9.30;99.90;;;9.80;100.00;96636.44;4976010;28;20472;-75
2023/04/12 07:28:59;;;;;;;1.50;1.13;;;9.30;99.90;;;9.78;100.00;96620.19;4973533;28;20476;-75
2023/04/12 07:31:31;;;;;;;2.40;1.40;;;9.20;99.90;;;9.80;100.00;96625.97;4980456;28;21061;-75
2023/04/12 07:34:00;;;;;;;1.33;1.03;;;9.20;99.90;;;9.81;100.00;96618.94;4974150;28;20498;-75
2023/04/12 07:36:30;;;;;;;1.73;1.07;;;9.20;99.90;;;9.82;100.00;96617.94;4975831;28;20560;-75
2023/04/12 07:38:59;;;;;;;1.20;1.10;;;9.20;99.90;;;9.83;100.00;96611.69;4974110;28;20893;-75
2023/04/12 07:41:28;;;;;;;1.67;1.30;;;9.20;99.90;;;9.83;100.00;96611.69;4974941;28;20464;-75
2023/04/12 07:43:59;;;;;;;2.33;1.20;;;9.20;99.90;;;9.85;100.00;96605.25;4973187;28;20489;-75
2023/04/12 07:46:30;;;;;;;2.83;1.20;;;9.30;99.90;;;9.86;100.00;96596.38;4975306;28;20480;-75
2023/04/12 07:49:00;;;;;;;2.50;1.20;;;9.30;99.90;;;9.89;100.00;96595.19;4973898;28;20518;-75
2023/04/12 07:51:31;;;;;;;2.77;1.83;;;9.30;99.90;;;9.90;100.00;96594.13;4977758;28;20472;-76
2023/04/12 07:54:02;;;;;;;6.90;1.60;;;9.30;99.90;;;9.91;100.00;96593.13;4974429;28;21023;-74
2023/04/12 07:56:35;;;;;;;1.10;1.00;;;9.30;99.90;;;9.94;100.00;96587.47;4976864;28;20488;-75
2023/04/12 07:59:04;;;;;;;2.57;1.47;;;9.20;99.90;;;9.96;100.00;96588.84;4975338;28;20559;-74
2023/04/12 08:01:37;;;;;;;3.13;1.20;;;9.30;99.90;;;9.98;100.00;96588.63;4974526;28;20460;-75
2023/04/12 08:04:08;;;;;;;2.23;1.13;;;9.40;99.90;;;10.01;100.00;96590.81;4976362;28;20911;-75
2023/04/12 08:06:39;;;;;;;2.70;1.20;;;9.40;99.90;;;10.02;100.00;96595.00;4973591;28;20465;-74
2023/04/12 08:09:09;;;;;;;2.23;1.00;;;9.40;99.90;;;10.05;100.00;96587.53;4977729;28;20487;-75
2023/04/12 08:11:39;;;;;;;1.40;1.30;;;9.50;99.90;;;10.07;100.00;96582.09;4975047;28;20464;-75
2023/04/12 08:14:09;;;;;;;1.00;0.90;;;9.40;99.90;;;10.08;100.00;96578.47;4973929;28;20461;-74
2023/04/12 08:16:40;;;;;;;1.20;1.10;;;9.40;99.90;;;10.14;100.00;96580.22;4975281;28;20572;-74
2023/04/12 08:19:11;;;;;;;1.77;1.13;;;9.50;99.90;;;10.19;100.00;96577.75;4974670;28;20478;-75
2023/04/12 08:21:41;;;;;;;228.10;110.40;;;9.60;99.90;;;10.22;100.00;96574.69;4975150;28;20503;-72
2023/04/12 08:24:11;;;;;;;11.13;6.20;;;9.60;99.90;;;10.27;100.00;96569.63;4977001;28;20499;-75
2023/04/12 08:26:42;;;;;;;2.50;1.50;;;9.60;99.90;;;10.32;100.00;96561.91;4976350;28;20469;-75
2023/04/12 08:29:11;;;;;;;1.70;1.23;;;9.80;99.90;;;10.35;100.00;96561.47;4975692;28;20521;-75
2023/04/12 08:31:43;;;;;;;7.70;1.30;;;9.80;99.90;;;10.39;100.00;96559.19;4976408;28;20509;-75
2023/04/12 08:34:14;;;;;;;1.73;1.00;;;9.80;99.90;;;10.42;100.00;96559.56;4975674;28;20495;-77
2023/04/12 08:36:43;;;;;;;1.20;1.10;;;9.90;99.90;;;10.45;100.00;96564.31;4973171;28;20565;-75
2023/04/12 08:39:13;;;;;;;2.10;1.30;;;9.90;99.90;;;10.47;100.00;96551.84;4975549;28;20544;-75
2023/04/12 08:41:43;;;;;;;1.33;1.20;;;9.90;99.90;;;10.52;100.00;96556.38;4978130;28;20475;-75
2023/04/12 08:44:13;;;;;;;1.97;1.20;;;9.90;99.90;;;10.55;100.00;96545.50;4974280;28;20590;-75
2023/04/12 08:46:45;;;;;;;1.97;1.10;;;10.00;99.90;;;10.57;100.00;96546.88;4977997;28;21384;-75
2023/04/12 08:49:21;;;;;;;1.23;1.10;;;10.00;99.90;;;10.60;100.00;96543.81;4975664;28;20554;-75
2023/04/12 08:51:53;;;;;;;2.77;1.27;;;10.00;99.90;;;10.66;100.00;96539.50;4973368;28;20479;-75
2023/04/12 08:54:26;;;;;;;4.50;1.50;;;10.10;99.90;;;10.69;100.00;96538.28;4975236;28;20463;-75
2023/04/12 08:57:01;;;;;;;1.17;1.07;;;10.20;99.90;;;10.72;100.00;96538.63;4976384;28;20487;-75
2023/04/12 08:59:32;;;;;;;3.20;1.10;;;10.20;99.90;;;10.74;100.00;96528.72;4978147;28;21180;-75
2023/04/12 09:02:03;;;;;;;1.40;1.30;;;10.30;99.90;;;10.76;100.00;96531.13;4975466;28;20476;-75
2023/04/12 09:04:47;;;;;;;1.40;1.30;;;10.20;99.90;;;10.77;100.00;96522.25;4980501;28;20496;-75
2023/04/12 09:07:17;;;;;;;2.17;1.63;;;10.30;99.90;;;10.80;100.00;96513.94;4979046;28;20466;-75
2023/04/12 09:09:48;;;;;;;2.23;1.23;;;10.30;99.90;;;10.81;100.00;96523.38;4979530;28;20514;-76
2023/04/12 09:12:19;;;;;;;2.70;1.00;;;10.30;99.90;;;10.86;100.00;96518.28;4979555;28;20542;-75
2023/04/12 09:14:48;;;;;;;1.20;1.03;;;10.30;99.90;;;10.88;100.00;96521.47;4977597;28;20482;-75
2023/04/12 09:17:26;;;;;;;4.50;1.50;;;10.30;99.90;;;10.93;100.00;96513.75;4980184;28;20472;-75
2023/04/12 09:19:55;;;;;;;1.47;1.17;;;10.30;99.90;;;10.93;100.00;96508.50;4982233;28;20546;-75
2023/04/12 09:22:35;;;;;;;6.00;1.73;;;10.30;99.90;;;10.93;100.00;96511.91;4976424;28;20480;-75
2023/04/12 09:25:07;;;;;;;1.53;1.00;;;10.40;99.90;;;10.95;100.00;96506.47;4974330;28;21439;-75
2023/04/12 09:27:47;;;;;;;1.30;1.20;;;10.40;99.90;;;10.97;100.00;96509.63;4976161;28;20481;-75
2023/04/12 09:30:19;;;;;;;2.47;1.30;;;10.40;99.90;;;10.97;100.00;96504.41;4976361;28;20468;-75
2023/04/12 09:32:52;;;;;;;1.03;0.93;;;10.40;99.90;;;10.97;100.00;96493.94;4977821;28;20471;-75
2023/04/12 09:35:34;;;;;;;1.67;1.10;;;10.50;99.90;;;10.94;100.00;96489.16;4976772;28;20464;-75
2023/04/12 09:38:09;;;;;;;1.97;1.10;;;10.40;99.90;;;10.95;100.00;96490.75;4976831;28;20468;-76
2023/04/12 09:40:39;;;;;;;1.43;1.13;;;10.30;99.90;;;10.99;100.00;96476.22;4975647;28;20472;-75
2023/04/12 09:43:09;;;;;;;3.27;1.40;;;10.50;99.90;;;10.97;100.00;96479.03;4975055;28;20523;-75
2023/04/12 09:45:40;;;;;;;2.30;1.10;;;10.40;99.90;;;11.00;100.00;96481.19;4976132;28;20684;-75
2023/04/12 09:48:20;;;;;;;1.20;1.10;;;10.40;99.90;;;11.02;100.00;96473.13;4979954;28;20456;-75
2023/04/12 09:51:00;;;;;;;2.03;1.33;;;10.40;99.90;;;10.99;100.00;96471.78;4977437;28;20472;-75
2023/04/12 09:53:31;;;;;;;1.37;1.27;;;10.30;99.90;;;11.00;100.00;96475.19;4974374;28;20502;-75
2023/04/12 09:56:03;;;;;;;3.43;1.27;;;10.30;99.90;;;11.03;100.00;96464.28;4978338;28;20515;-76
2023/04/12 09:58:36;;;;;;;2.40;0.90;;;10.30;99.90;;;11.01;100.00;96463.69;4976836;28;20604;-75
2023/04/12 10:01:11;;;;;;;1.53;1.23;;;10.40;99.90;;;11.05;100.00;96462.22;4975432;28;20464;-73
2023/04/12 10:03:44;;;;;;;4.17;1.50;;;10.40;99.90;;;11.06;100.00;96455.97;4976510;28;20483;-75
2023/04/12 10:06:14;;;;;;;1.20;1.10;;;10.50;99.90;;;11.08;100.00;96457.31;4975751;28;20841;-77
2023/04/12 10:08:45;;;;;;;2.90;1.20;;;10.50;99.90;;;11.11;100.00;96462.09;4978057;28;20468;-75
2023/04/12 10:11:15;;;;;;;1.93;1.17;;;10.50;99.90;;;11.15;100.00;96454.59;4977696;28;20518;-75
2023/04/12 10:13:48;;;;;;;1.20;1.10;;;10.50;99.90;;;11.17;100.00;96449.94;4977066;28;20460;-75
2023/04/12 10:16:18;;;;;;;1.40;1.30;;;10.60;99.90;;;11.20;100.00;96456.50;4977499;28;20463;-75
2023/04/12 10:18:52;;;;;;;1.27;1.17;;;10.50;99.90;;;11.26;100.00;96456.38;4975654;28;20467;-75
2023/04/12 10:21:23;;;;;;;1.50;1.13;;;10.70;99.90;;;11.32;100.00;96450.22;4976933;28;20464;-75
2023/04/12 10:23:52;;;;;;;1.50;1.20;;;10.80;99.90;;;11.37;100.00;96447.72;4977668;28;20500;-75
2023/04/12 10:26:22;;;;;;;44.37;19.80;;;10.90;99.90;;;11.41;100.00;96453.28;4976797;28;20468;-73
2023/04/12 10:29:27;;;;;;;2.07;1.20;;;10.90;99.90;;;11.43;100.00;96452.03;4975469;28;20465;-76
2023/04/12 10:31:59;;;;;;;1.03;0.93;;;10.90;99.90;;;11.48;100.00;96449.53;4975072;28;20477;-76
2023/04/12 10:34:31;;;;;;;0.90;0.90;;;10.90;99.90;;;11.51;100.00;96453.50;4978459;28;20464;-76
2023/04/12 10:37:03;;;;;;;1.00;0.90;;;11.00;99.90;;;11.55;100.00;96450.19;4976095;28;20517;-75
2023/04/12 10:39:41;;;;;;;1.43;0.93;;;11.00;99.90;;;11.54;100.00;96448.59;4979966;28;20465;-76
2023/04/12 10:42:23;;;;;;;1.27;0.90;;;11.00;99.90;;;11.57;100.00;96448.13;4978777;28;20594;-75